createdAt,value
2023-04-05T00:02:24.452Z,4.37
2023-04-05T00:04:52.211Z,4.60
2023-04-05T00:07:21.450Z,6.60
2023-04-05T00:09:48.740Z,4.47
2023-04-05T00:12:15.657Z,6.83
2023-04-05T00:14:42.268Z,5.73
2023-04-05T00:17:11.906Z,7.47
2023-04-05T00:19:39.378Z,3.63
2023-04-05T00:22:06.105Z,4.00
2023-04-05T00:24:33.895Z,6.20
2023-04-05T00:27:01.108Z,7.13
2023-04-05T00:29:27.941Z,4.33
2023-04-05T00:31:54.816Z,3.70
2023-04-05T00:34:21.517Z,4.17
2023-04-05T00:36:48.503Z,3.43
2023-04-05T00:39:15.146Z,4.17
2023-04-05T00:41:41.775Z,3.90
2023-04-05T00:44:08.412Z,4.87
2023-04-05T00:46:36.512Z,5.17
2023-04-05T00:49:04.661Z,4.73
2023-04-05T00:51:34.461Z,5.33
2023-04-05T00:54:02.565Z,5.07
2023-04-05T00:56:30.223Z,3.33
2023-04-05T00:58:57.012Z,4.73
2023-04-05T01:01:26.170Z,3.27
2023-04-05T01:03:55.786Z,5.13
2023-04-05T01:06:40.778Z,5.07
2023-04-05T01:09:17.781Z,4.60
2023-04-05T01:11:47.287Z,3.70
2023-04-05T01:14:14.444Z,2.80
2023-04-05T01:16:41.083Z,3.80
2023-04-05T01:19:09.925Z,6.13
2023-04-05T01:22:13.800Z,5.30
2023-04-05T01:25:02.946Z,3.80
2023-04-05T01:27:53.036Z,4.73
2023-04-05T01:30:40.796Z,3.23
2023-04-05T01:33:46.595Z,5.10
2023-04-05T01:36:27.006Z,2.63
2023-04-05T01:38:55.926Z,5.20
2023-04-05T01:41:22.979Z,4.83
2023-04-05T01:43:49.824Z,3.10
2023-04-05T01:46:16.496Z,3.73
2023-04-05T01:48:43.156Z,3.17
2023-04-05T01:51:09.815Z,3.83
2023-04-05T01:53:36.441Z,7.00
2023-04-05T01:56:03.185Z,2.87
2023-04-05T01:58:29.963Z,3.07
2023-04-05T02:00:57.473Z,4.70
2023-04-05T02:03:24.876Z,5.00
2023-04-05T02:05:51.968Z,5.83
2023-04-05T02:08:18.754Z,4.23
2023-04-05T02:10:45.833Z,3.90
2023-04-05T02:13:13.671Z,4.23
2023-04-05T02:15:40.480Z,3.53
2023-04-05T02:18:08.026Z,6.50
2023-04-05T02:20:34.804Z,5.30
2023-04-05T02:23:01.911Z,4.33
2023-04-05T02:25:28.604Z,4.83
2023-04-05T02:27:55.306Z,3.47
2023-04-05T02:30:21.949Z,4.50
2023-04-05T02:32:48.561Z,2.80
2023-04-05T02:35:17.176Z,4.83
2023-04-05T02:37:43.901Z,5.30
2023-04-05T02:40:14.842Z,3.63
2023-04-05T02:42:41.943Z,5.93
2023-04-05T02:45:08.934Z,3.67
2023-04-05T02:47:35.572Z,4.13
2023-04-05T02:50:02.295Z,5.37
2023-04-05T02:52:28.910Z,5.63
2023-04-05T02:54:55.484Z,2.93
2023-04-05T02:57:22.674Z,3.90
2023-04-05T02:59:49.408Z,4.07
2023-04-05T03:02:16.127Z,3.33
2023-04-05T03:04:44.785Z,5.17
2023-04-05T03:07:14.386Z,4.20
2023-04-05T03:09:41.688Z,4.00
2023-04-05T03:12:08.352Z,4.13
2023-04-05T03:14:35.113Z,3.27
2023-04-05T03:17:01.840Z,4.53
2023-04-05T03:19:28.524Z,2.77
2023-04-05T03:21:55.202Z,2.80
2023-04-05T03:24:21.873Z,6.47
2023-04-05T03:26:49.202Z,2.97
2023-04-05T03:29:17.216Z,2.93
2023-04-05T03:31:45.449Z,2.77
2023-04-05T03:34:12.109Z,2.90
2023-04-05T03:36:42.001Z,5.23
2023-04-05T03:39:13.207Z,3.80
2023-04-05T03:41:40.932Z,4.80
2023-04-05T03:44:08.863Z,3.40
2023-04-05T03:46:37.822Z,6.93
2023-04-05T03:49:06.032Z,3.50
2023-04-05T03:51:33.367Z,5.83
2023-04-05T03:54:00.321Z,7.83
2023-04-05T03:56:27.231Z,4.23
2023-04-05T03:58:54.025Z,5.93
2023-04-05T04:01:20.780Z,3.40
2023-04-05T04:03:47.431Z,3.50
2023-04-05T04:06:14.628Z,3.57
2023-04-05T04:08:42.070Z,3.83
2023-04-05T04:11:08.748Z,8.07
2023-04-05T04:13:35.800Z,7.93
2023-04-05T04:16:03.717Z,5.93
2023-04-05T04:18:30.373Z,3.43
2023-04-05T04:20:58.544Z,3.50
2023-04-05T04:23:27.130Z,5.33
2023-04-05T04:25:54.681Z,4.00
2023-04-05T04:28:21.573Z,5.40
2023-04-05T04:30:48.184Z,5.00
2023-04-05T04:33:14.908Z,5.80
2023-04-05T04:35:42.480Z,6.43
2023-04-05T04:38:09.299Z,6.07
2023-04-05T04:40:41.559Z,3.57
2023-04-05T04:43:14.260Z,5.57
2023-04-05T04:45:41.657Z,5.80
2023-04-05T04:48:08.711Z,4.13
2023-04-05T04:50:35.910Z,3.93
2023-04-05T04:53:04.158Z,3.63
2023-04-05T04:55:33.286Z,8.07
2023-04-05T04:58:00.267Z,6.00
2023-04-05T05:00:26.976Z,5.87
2023-04-05T05:02:56.065Z,6.93
2023-04-05T05:05:23.591Z,4.30
2023-04-05T05:07:50.800Z,8.13
2023-04-05T05:10:18.748Z,4.80
2023-04-05T05:12:45.750Z,5.87
2023-04-05T05:15:12.896Z,4.00
2023-04-05T05:17:39.728Z,6.90
2023-04-05T05:20:11.012Z,5.23
2023-04-05T05:22:39.874Z,6.93
2023-04-05T05:25:07.576Z,6.10
2023-04-05T05:27:34.397Z,9.57
2023-04-05T05:30:01.277Z,10.07
2023-04-05T05:32:28.163Z,5.13
2023-04-05T05:34:54.899Z,5.53
2023-04-05T05:37:29.684Z,6.60
2023-04-05T05:39:56.354Z,5.10
2023-04-05T05:42:23.653Z,5.20
2023-04-05T05:44:50.438Z,8.00
2023-04-05T05:47:17.083Z,6.33
2023-04-05T05:49:43.709Z,4.23
2023-04-05T05:52:10.649Z,10.37
2023-04-05T05:54:37.230Z,6.13
2023-04-05T05:57:04.043Z,7.03
2023-04-05T05:59:30.933Z,9.27
2023-04-05T06:01:57.612Z,5.00
2023-04-05T06:04:24.566Z,6.43
2023-04-05T06:06:51.548Z,7.53
2023-04-05T06:09:18.246Z,6.87
2023-04-05T06:11:55.651Z,8.33
2023-04-05T06:14:24.918Z,7.00
2023-04-05T06:16:52.125Z,7.70
2023-04-05T06:19:18.770Z,6.90
2023-04-05T06:21:48.113Z,5.53
2023-04-05T06:24:14.760Z,6.77
2023-04-05T06:26:41.567Z,8.33
2023-04-05T06:29:08.214Z,8.93
2023-04-05T06:31:36.925Z,6.03
2023-04-05T06:34:03.736Z,4.90
2023-04-05T06:36:31.928Z,5.67
2023-04-05T06:38:59.270Z,6.53
2023-04-05T06:41:27.387Z,6.27
2023-04-05T06:43:54.041Z,6.67
2023-04-05T06:46:21.047Z,4.97
2023-04-05T06:48:49.677Z,5.63
2023-04-05T06:51:16.327Z,4.60
2023-04-05T06:53:43.048Z,8.07
2023-04-05T06:56:09.782Z,6.07
2023-04-05T06:58:36.747Z,6.20
2023-04-05T07:01:03.941Z,5.60
2023-04-05T07:03:31.033Z,8.13
2023-04-05T07:05:59.153Z,5.03
2023-04-05T07:08:27.611Z,7.33
2023-04-05T07:10:54.575Z,8.70
2023-04-05T07:13:23.206Z,8.67
2023-04-05T07:15:50.200Z,5.63
2023-04-05T07:18:18.128Z,9.10
2023-04-05T07:20:52.124Z,7.20
2023-04-05T07:23:19.353Z,6.00
2023-04-05T07:25:46.987Z,5.80
2023-04-05T07:28:13.649Z,5.20
2023-04-05T07:30:40.601Z,9.93
2023-04-05T07:33:07.574Z,5.13
2023-04-05T07:35:34.267Z,4.13
2023-04-05T07:38:01.182Z,4.50
2023-04-05T07:40:27.860Z,8.13
2023-04-05T07:42:54.779Z,5.77
2023-04-05T07:45:21.394Z,3.97
2023-04-05T07:47:48.021Z,5.07
2023-04-05T07:50:15.151Z,3.90
2023-04-05T07:52:42.692Z,5.57
2023-04-05T07:55:10.071Z,9.40
2023-04-05T07:57:37.617Z,7.43
2023-04-05T08:00:10.689Z,3.70
2023-04-05T08:02:37.435Z,5.53
2023-04-05T08:05:04.930Z,4.73
2023-04-05T08:07:31.744Z,5.07
2023-04-05T08:09:59.305Z,4.50
2023-04-05T08:12:31.217Z,5.57
2023-04-05T08:14:58.232Z,6.23
2023-04-05T08:17:27.096Z,3.77
2023-04-05T08:19:54.498Z,4.20
2023-04-05T08:22:21.390Z,4.33
2023-04-05T08:24:48.141Z,5.03
2023-04-05T08:27:14.859Z,5.43
2023-04-05T08:29:41.625Z,6.23
2023-04-05T08:32:08.979Z,10.23
2023-04-05T08:34:35.895Z,8.07
2023-04-05T08:37:02.701Z,6.07
2023-04-05T08:39:29.365Z,3.80
2023-04-05T08:42:28.472Z,4.33
2023-04-05T08:44:59.627Z,2.70
2023-04-05T08:47:26.924Z,8.50
2023-04-05T08:49:54.303Z,6.77
2023-04-05T08:52:21.055Z,3.53
2023-04-05T08:54:50.981Z,3.93
2023-04-05T08:57:22.072Z,3.00
2023-04-05T08:59:49.654Z,3.30
2023-04-05T09:02:19.633Z,10.00
2023-04-05T09:04:48.825Z,6.63
2023-04-05T09:07:15.835Z,5.70
2023-04-05T09:09:46.886Z,5.60
2023-04-05T09:12:14.681Z,4.17
2023-04-05T09:14:42.841Z,3.87
2023-04-05T09:17:10.511Z,3.43
2023-04-05T09:19:37.637Z,5.13
2023-04-05T09:22:06.576Z,2.67
2023-04-05T09:24:44.446Z,5.00
2023-04-05T09:27:12.126Z,3.40
2023-04-05T09:29:40.629Z,3.80
2023-04-05T09:32:09.517Z,4.10
2023-04-05T09:34:39.143Z,5.17
2023-04-05T09:37:17.369Z,3.57
2023-04-05T09:39:44.758Z,6.63
2023-04-05T09:42:16.789Z,3.70
2023-04-05T09:44:50.764Z,4.03
2023-04-05T09:47:18.878Z,6.67
2023-04-05T09:49:45.711Z,2.83
2023-04-05T09:52:19.890Z,2.87
2023-04-05T09:54:46.789Z,3.63
2023-04-05T09:57:15.380Z,4.53
2023-04-05T09:59:42.187Z,3.83
2023-04-05T10:02:11.682Z,6.57
2023-04-05T10:04:46.628Z,3.47
2023-04-05T10:07:14.755Z,3.93
2023-04-05T10:09:42.835Z,4.30
2023-04-05T10:12:11.007Z,5.43
2023-04-05T10:14:38.454Z,3.30
2023-04-05T10:17:12.890Z,5.53
2023-04-05T10:19:51.537Z,4.23
2023-04-05T10:22:24.982Z,3.90
2023-04-05T10:25:08.381Z,3.37
2023-04-05T10:27:48.789Z,4.33
2023-04-05T10:30:16.537Z,4.70
2023-04-05T10:33:07.647Z,5.37
2023-04-05T10:35:36.893Z,4.10
2023-04-05T10:38:25.674Z,3.87
2023-04-05T10:41:02.522Z,5.13
2023-04-05T10:43:34.386Z,4.47
2023-04-05T10:46:03.444Z,3.43
2023-04-05T10:48:37.218Z,5.53
2023-04-05T10:51:04.440Z,4.10
2023-04-05T10:53:32.858Z,3.90
2023-04-05T10:56:01.613Z,3.97
2023-04-05T10:58:30.636Z,3.83
2023-04-05T11:00:58.689Z,5.83
2023-04-05T11:03:48.294Z,4.87
2023-04-05T11:06:30.987Z,3.50
2023-04-05T11:09:11.135Z,3.20
2023-04-05T11:11:43.185Z,2.90
2023-04-05T11:14:36.656Z,3.83
2023-04-05T11:17:04.226Z,5.63
2023-04-05T11:19:43.191Z,4.37
2023-04-05T11:22:10.689Z,3.43
2023-04-05T11:25:02.629Z,5.90
2023-04-05T11:27:34.256Z,3.80
2023-04-05T11:30:03.597Z,3.90
2023-04-05T11:32:43.083Z,3.60
2023-04-05T11:35:22.830Z,6.73
2023-04-05T11:37:56.441Z,4.73
2023-04-05T11:40:28.701Z,5.93
2023-04-05T11:43:06.071Z,4.23
2023-04-05T11:45:34.112Z,4.97
2023-04-05T11:48:05.550Z,3.87
2023-04-05T11:50:32.997Z,3.70
2023-04-05T11:53:16.352Z,4.23
2023-04-05T11:55:45.654Z,5.77
2023-04-05T11:58:17.716Z,5.93
2023-04-05T12:00:46.314Z,4.73
2023-04-05T12:03:14.466Z,4.10
2023-04-05T12:05:51.935Z,4.37
2023-04-05T12:08:19.986Z,4.27
2023-04-05T12:11:02.309Z,7.20
2023-04-05T12:13:35.904Z,5.27
2023-04-05T12:16:04.771Z,4.80
2023-04-05T12:18:33.390Z,5.87
2023-04-05T12:21:07.339Z,3.50
2023-04-05T12:23:35.202Z,4.37
2023-04-05T12:26:02.126Z,5.60
2023-04-05T12:28:57.470Z,4.83
2023-04-05T12:31:46.872Z,4.67
2023-04-05T12:34:14.623Z,5.07
2023-04-05T12:36:46.207Z,4.77
2023-04-05T12:39:12.971Z,5.17
2023-04-05T12:41:39.810Z,7.43
2023-04-05T12:44:16.515Z,4.07
2023-04-05T12:46:45.174Z,5.23
2023-04-05T12:49:18.839Z,9.77
2023-04-05T12:51:46.719Z,3.50
2023-04-05T12:54:25.227Z,4.10
2023-04-05T12:56:54.214Z,6.83
2023-04-05T12:59:21.499Z,3.57
2023-04-05T13:01:48.347Z,3.50
2023-04-05T13:04:17.083Z,4.30
2023-04-05T13:06:47.195Z,4.33
2023-04-05T13:09:14.438Z,5.20
2023-04-05T13:11:41.064Z,4.47
2023-04-05T13:14:07.814Z,3.20
2023-04-05T13:16:34.653Z,3.90
2023-04-05T13:19:01.492Z,3.37
2023-04-05T13:21:28.186Z,4.07
2023-04-05T13:23:54.843Z,4.53
2023-04-05T13:26:21.833Z,3.07
2023-04-05T13:28:48.468Z,3.60
2023-04-05T13:31:16.031Z,6.87
2023-04-05T13:33:43.371Z,3.27
2023-04-05T13:36:12.280Z,3.23
2023-04-05T13:38:39.274Z,3.40
2023-04-05T13:41:06.079Z,4.13
2023-04-05T13:43:32.764Z,3.23
2023-04-05T13:45:59.844Z,3.10
2023-04-05T13:48:26.490Z,4.43
2023-04-05T13:50:53.166Z,3.40
2023-04-05T13:53:19.931Z,3.07
2023-04-05T13:55:46.528Z,3.50
2023-04-05T13:58:14.456Z,3.57
2023-04-05T14:00:41.809Z,4.77
2023-04-05T14:03:08.902Z,4.93
2023-04-05T14:05:35.933Z,4.80
2023-04-05T14:08:02.653Z,5.53
2023-04-05T14:10:31.000Z,3.30
2023-04-05T14:12:57.644Z,5.93
2023-04-05T14:15:24.344Z,4.70
2023-04-05T14:17:51.146Z,4.97
2023-04-05T14:20:17.899Z,4.40
2023-04-05T14:22:44.674Z,5.13
2023-04-05T14:25:11.456Z,3.70
2023-04-05T14:27:42.361Z,3.30
2023-04-05T14:30:11.060Z,4.17
2023-04-05T14:32:37.922Z,3.60
2023-04-05T14:35:05.000Z,4.40
2023-04-05T14:37:31.631Z,7.10
2023-04-05T14:40:00.674Z,5.23
2023-04-05T14:42:37.306Z,13.50
2023-04-05T14:45:12.356Z,5.93
2023-04-05T14:47:39.174Z,4.43
2023-04-05T14:50:07.683Z,4.60
2023-04-05T14:52:34.426Z,5.10
2023-04-05T14:55:01.200Z,5.10
2023-04-05T14:57:27.852Z,5.87
2023-04-05T14:59:57.812Z,4.10
2023-04-05T15:02:25.411Z,4.03
2023-04-05T15:04:52.186Z,4.23
2023-04-05T15:07:18.919Z,3.73
2023-04-05T15:09:45.794Z,5.10
2023-04-05T15:12:12.491Z,5.30
2023-04-05T15:14:39.194Z,6.43
2023-04-05T15:17:05.963Z,5.73
2023-04-05T15:19:32.765Z,3.37
2023-04-05T15:21:59.452Z,3.70
2023-04-05T15:24:26.189Z,4.30
2023-04-05T15:26:52.948Z,4.00
2023-04-05T15:29:19.670Z,4.37
2023-04-05T15:31:46.441Z,7.50
2023-04-05T15:34:13.217Z,6.20
2023-04-05T15:36:39.878Z,4.23
2023-04-05T15:39:07.125Z,5.87
2023-04-05T15:41:36.966Z,3.63
2023-04-05T15:44:04.196Z,4.27
2023-04-05T15:46:31.574Z,4.20
2023-04-05T15:48:58.936Z,4.60
2023-04-05T15:51:26.221Z,3.93
2023-04-05T15:53:52.902Z,5.67
2023-04-05T15:56:19.651Z,3.83
2023-04-05T15:58:46.357Z,6.47
2023-04-05T16:01:13.386Z,3.77
2023-04-05T16:03:40.700Z,4.13
2023-04-05T16:06:07.966Z,6.37
2023-04-05T16:08:34.727Z,3.17
2023-04-05T16:11:01.515Z,6.23
2023-04-05T16:13:28.194Z,5.70
2023-04-05T16:15:54.982Z,3.83
2023-04-05T16:18:23.703Z,6.63
2023-04-05T16:20:52.232Z,3.93
2023-04-05T16:23:19.073Z,3.70
2023-04-05T16:25:48.652Z,4.23
2023-04-05T16:28:15.625Z,9.20
2023-04-05T16:30:42.710Z,4.87
2023-04-05T16:33:09.942Z,4.20
2023-04-05T16:35:36.700Z,6.37
2023-04-05T16:38:04.123Z,5.47
2023-04-05T16:40:33.000Z,4.47
2023-04-05T16:42:59.740Z,6.60
2023-04-05T16:45:28.510Z,4.30
2023-04-05T16:47:55.307Z,9.93
2023-04-05T16:50:22.061Z,5.07
2023-04-05T16:52:48.819Z,4.40
2023-04-05T16:55:15.710Z,4.67
2023-04-05T16:57:42.396Z,4.50
2023-04-05T17:00:09.621Z,5.20
2023-04-05T17:02:36.471Z,5.00
2023-04-05T17:05:03.506Z,5.57
2023-04-05T17:07:30.147Z,4.73
2023-04-05T17:09:57.968Z,4.77
2023-04-05T17:12:24.659Z,5.53
2023-04-05T17:14:51.423Z,5.00
2023-04-05T17:17:18.077Z,13.97
2023-04-05T17:19:44.998Z,7.10
2023-04-05T17:22:11.745Z,4.90
2023-04-05T17:24:38.495Z,4.60
2023-04-05T17:27:05.335Z,7.00
2023-04-05T17:29:33.221Z,7.40
2023-04-05T17:31:59.977Z,9.47
2023-04-05T17:34:26.710Z,5.80
2023-04-05T17:36:53.414Z,5.50
2023-04-05T17:39:20.521Z,4.33
2023-04-05T17:41:47.413Z,5.63
2023-04-05T17:44:14.904Z,5.50
2023-04-05T17:46:46.629Z,9.20
2023-04-05T17:49:20.939Z,6.17
2023-04-05T17:51:48.304Z,5.80
2023-04-05T17:54:15.474Z,6.00
2023-04-05T17:56:42.478Z,4.43
2023-04-05T17:59:09.422Z,7.80
2023-04-05T18:01:37.607Z,5.17
2023-04-05T18:04:05.697Z,5.63
2023-04-05T18:06:32.807Z,5.70
2023-04-05T18:09:00.207Z,7.37
2023-04-05T18:11:27.209Z,6.50
2023-04-05T18:13:53.948Z,7.07
2023-04-05T18:16:21.492Z,5.80
2023-04-05T18:18:48.555Z,6.10
2023-04-05T18:21:15.312Z,7.00
2023-04-05T18:23:43.294Z,6.53
2023-04-05T18:26:10.100Z,6.73
2023-04-05T18:28:36.916Z,7.13
2023-04-05T18:31:03.805Z,8.43
2023-04-05T18:33:30.709Z,4.70
2023-04-05T18:36:00.564Z,5.57
2023-04-05T18:38:27.284Z,5.70
2023-04-05T18:41:02.456Z,6.00
2023-04-05T18:43:29.562Z,5.90
2023-04-05T18:45:56.624Z,4.70
2023-04-05T18:48:25.000Z,5.67
2023-04-05T18:50:53.784Z,5.70
2023-04-05T18:53:23.636Z,4.17
2023-04-05T18:55:51.336Z,5.77
2023-04-05T18:58:18.240Z,6.17
2023-04-05T19:00:44.904Z,4.80
2023-04-05T19:03:13.375Z,5.50
2023-04-05T19:05:40.370Z,6.40
2023-04-05T19:08:07.165Z,9.33
2023-04-05T19:10:33.840Z,5.53
2023-04-05T19:13:00.561Z,4.90
2023-04-05T19:15:27.493Z,7.47
2023-04-05T19:17:54.518Z,6.60
2023-04-05T19:20:21.242Z,5.53
2023-04-05T19:22:47.914Z,4.63
2023-04-05T19:25:14.688Z,5.17
2023-04-05T19:27:41.391Z,7.97
2023-04-05T19:30:11.136Z,9.60
2023-04-05T19:32:38.052Z,7.53
2023-04-05T19:35:07.481Z,12.90
2023-04-05T19:37:34.738Z,8.93
2023-04-05T19:40:02.025Z,10.20
2023-04-05T19:42:28.645Z,7.23
2023-04-05T19:44:57.948Z,7.47
2023-04-05T19:47:25.509Z,13.43
2023-04-05T19:49:55.907Z,9.90
2023-04-05T19:52:46.635Z,11.60
2023-04-05T19:55:32.944Z,7.73
2023-04-05T19:58:01.640Z,7.77
2023-04-05T20:00:48.572Z,12.30
2023-04-05T20:03:31.679Z,11.40
2023-04-05T20:06:11.268Z,12.97
2023-04-05T20:08:42.897Z,11.77
2023-04-05T20:13:51.060Z,18.23
2023-04-05T20:16:22.253Z,20.23
2023-04-05T20:18:49.286Z,18.37
2023-04-05T20:21:16.607Z,16.00
2023-04-05T20:23:44.636Z,22.43
2023-04-05T20:26:16.433Z,18.33
2023-04-05T20:28:53.189Z,16.20
2023-04-05T20:31:32.841Z,15.20
2023-04-05T20:34:19.510Z,17.03
2023-04-05T20:36:54.640Z,15.93
2023-04-05T20:39:23.496Z,13.57
2023-04-05T20:41:50.415Z,14.20
2023-04-05T20:44:17.160Z,19.00
2023-04-05T20:46:43.965Z,13.13
2023-04-05T20:49:11.790Z,13.17
2023-04-05T20:51:41.863Z,14.20
2023-04-05T20:54:09.578Z,15.50
2023-04-05T20:56:36.504Z,12.63
2023-04-05T20:59:11.325Z,10.83
2023-04-05T21:01:38.607Z,14.57
2023-04-05T21:04:08.360Z,11.00
2023-04-05T21:06:37.083Z,12.40
2023-04-05T21:09:04.101Z,11.30
2023-04-05T21:11:30.792Z,12.77
2023-04-05T21:13:58.702Z,16.77
2023-04-05T21:16:25.525Z,11.30
2023-04-05T21:18:52.281Z,12.73
2023-04-05T21:21:18.960Z,12.47
2023-04-05T21:23:45.852Z,12.67
2023-04-05T21:26:13.030Z,12.10
2023-04-05T21:28:40.161Z,14.63
2023-04-05T21:31:07.421Z,12.90
2023-04-05T21:33:34.773Z,11.40
2023-04-05T21:36:01.949Z,14.13
2023-04-05T21:38:28.979Z,15.20
2023-04-05T21:40:56.126Z,15.30
2023-04-05T21:43:23.383Z,15.73
2023-04-05T21:45:52.481Z,13.67
2023-04-05T21:48:19.578Z,16.30
2023-04-05T21:50:46.680Z,15.03
2023-04-05T21:53:14.784Z,12.93
2023-04-05T21:55:42.585Z,13.63
2023-04-05T21:58:10.341Z,17.23
2023-04-05T22:00:38.095Z,14.03
2023-04-05T22:03:05.237Z,13.90
2023-04-05T22:05:38.646Z,14.17
2023-04-05T22:08:07.399Z,16.43
2023-04-05T22:10:35.029Z,15.93
2023-04-05T22:13:02.209Z,17.07
2023-04-05T22:15:31.678Z,16.23
2023-04-05T22:17:58.971Z,12.97
2023-04-05T22:20:26.636Z,13.17
2023-04-05T22:22:53.628Z,14.17
2023-04-05T22:25:20.808Z,12.13
2023-04-05T22:27:47.833Z,14.53
2023-04-05T22:30:16.136Z,14.90
2023-04-05T22:32:43.608Z,13.10
2023-04-05T22:35:11.252Z,12.30
2023-04-05T22:37:38.431Z,13.00
2023-04-05T22:40:06.245Z,12.60
2023-04-05T22:42:33.330Z,13.97
2023-04-05T22:45:02.730Z,13.37
2023-04-05T22:47:29.996Z,14.73
2023-04-05T22:49:57.136Z,10.97
2023-04-05T22:52:24.396Z,14.33
2023-04-05T22:54:51.311Z,11.43
2023-04-05T22:57:18.381Z,12.73
2023-04-05T22:59:45.512Z,11.27
2023-04-05T23:02:12.697Z,12.93
2023-04-05T23:04:39.971Z,12.63
2023-04-05T23:07:06.979Z,11.40
2023-04-05T23:09:34.543Z,11.03
2023-04-05T23:12:01.754Z,12.07
2023-04-05T23:14:29.367Z,11.83
2023-04-05T23:16:56.510Z,11.03
2023-04-05T23:19:23.665Z,11.97
2023-04-05T23:21:51.695Z,11.50
2023-04-05T23:24:18.775Z,11.33
2023-04-05T23:26:45.789Z,11.13
2023-04-05T23:29:12.737Z,9.33
2023-04-05T23:31:39.976Z,8.87
2023-04-05T23:34:07.178Z,10.87
2023-04-05T23:36:34.186Z,11.27
2023-04-05T23:39:01.381Z,10.77
2023-04-05T23:41:28.488Z,10.90
2023-04-05T23:43:55.535Z,10.07
2023-04-05T23:46:22.730Z,9.03
2023-04-05T23:48:50.058Z,8.30
2023-04-05T23:51:17.270Z,10.03
2023-04-05T23:53:44.344Z,8.10
2023-04-05T23:56:14.252Z,9.63
2023-04-05T23:58:45.583Z,11.50
